Terminal Aerodrome Forecast
Issued by NWS Mt. Holly, NJ

Home | Current Version | Previous Version | Text Only | Print | Product List | Glossary On
Versions: 1 2 3 4 5 6 7 8 9 10 11 12 13 14 15 16 17 18 19 20 21 22 23 24
484
FTUS41 KPHI 060559
TAFPHL
TAF
KPHL 060559Z 0606/0712 36005KT P6SM BKN250
     FM061100 04006KT P6SM OVC200
     FM061600 08010KT P6SM OVC120
     FM061900 10013KT 6SM -RA BKN030 OVC060
     FM062100 08010KT 5SM -RA BR OVC015
     FM062300 06009KT 4SM -RA BR OVC009
     FM070600 03014KT 3SM -RADZ BR OVC005=

USA.gov is the U.S. government's official web portal to all federal, state and local government web resources and services.